Palo Alto, Texas
Current Conditions -  °F | °C
As of 1:56 PM on Thursday 30 Oct 2014 (Local Time) from KNQI Reporting Station
Scattered Clouds Scattered Clouds  
Wind Chill: 86°   Ceiling: Unl
Heat Index: 90°   Visibility: 10mi
Dew Point: 69°   Wind: 6mph
Humidity: 57%   Direction: 230°SW
Pressure: 30.04"   Gusts: NA
Location:  27.6102°N, 97.7383°W
Report Text: KNQI 301856Z 23005KT 10SM SCT038 SCT060 30/21 A3004 RMK AO2 SLP168 T03000206
Loading
Personal Weather Stations






























Interactive Weather Map
Tropical Storm Tracking
New forecast layout! Learn more

10-Day Weather Forecast

Advertisements
Track Severe Weather on mobile